FCYSMB LFKC-LIRA
Flight info
| Callsign | FCYSMB |
|---|---|
| Flight time | N/A |
| Altitude | 23000 |
| Route | CAPCO DCT MIRSA DCT ELB/N0385F220 DCT ELKAP/N0379F210 ELKA3H |
| Aircraft | A321/M-SDE3FGHIRWY/LB1 |
Departure
| Time | 2026-04-30 13:57 |
|---|---|
| Airport | Calvi Sainte Catherine Airport (LFKC) |
Arrival
| Time | N/A |
|---|---|
| Airport | Ciampino–G. B. Pastine International Airport (LIRA) |
| Time | Latitude | Longitude | Altitude | Speed | Heading |
|---|---|---|---|---|---|
| 2026-04-30 13:31 | 42.52382 | 8.79053 | 198 ft | 0 kts | 230° |
| 2026-04-30 13:48 | 42.52390 | 8.79065 | 210 ft | 3 kts | 230° |
| 2026-04-30 13:48 | 42.52401 | 8.79083 | 211 ft | 2 kts | 230° |
| 2026-04-30 13:48 | 42.52412 | 8.79101 | 205 ft | 3 kts | 230° |
| 2026-04-30 13:49 | 42.52424 | 8.79119 | 211 ft | 3 kts | 230° |
| 2026-04-30 13:49 | 42.52435 | 8.79138 | 203 ft | 3 kts | 230° |
| 2026-04-30 13:49 | 42.52441 | 8.79146 | 199 ft | 0 kts | 230° |
| 2026-04-30 13:49 | 42.52440 | 8.79146 | 200 ft | 0 kts | 230° |
| 2026-04-30 13:50 | 42.52436 | 8.79147 | 201 ft | 0 kts | 190° |
| 2026-04-30 13:50 | 42.52408 | 8.79153 | 198 ft | 0 kts | 170° |
| 2026-04-30 13:51 | 42.52409 | 8.79152 | 198 ft | 2 kts | 170° |
| 2026-04-30 13:51 | 42.52395 | 8.79157 | 202 ft | 5 kts | 167° |
| 2026-04-30 13:51 | 42.52357 | 8.79171 | 205 ft | 6 kts | 164° |
| 2026-04-30 13:52 | 42.52318 | 8.79182 | 207 ft | 5 kts | 171° |
| 2026-04-30 13:52 | 42.52284 | 8.79186 | 198 ft | 4 kts | 175° |
| 2026-04-30 13:52 | 42.52261 | 8.79196 | 203 ft | 0 kts | 147° |
| 2026-04-30 13:53 | 42.52259 | 8.79199 | 208 ft | 3 kts | 136° |
| 2026-04-30 13:53 | 42.52216 | 8.79283 | 199 ft | 14 kts | 157° |
| 2026-04-30 13:53 | 42.52132 | 8.79281 | 202 ft | 10 kts | 194° |
| 2026-04-30 13:54 | 42.52081 | 8.79271 | 211 ft | 3 kts | 132° |
| 2026-04-30 13:54 | 42.52095 | 8.79287 | 208 ft | 5 kts | 35° |
| 2026-04-30 13:54 | 42.52142 | 8.79298 | 204 ft | 0 kts | 359° |
| 2026-04-30 13:56 | 42.52160 | 8.79297 | 203 ft | 22 kts | 359° |
| 2026-04-30 13:56 | 42.52616 | 8.79298 | 181 ft | 104 kts | 0° |
| 2026-04-30 13:56 | 42.53575 | 8.79297 | 112 ft | 168 kts | 360° |
| 2026-04-30 13:56 | 42.54843 | 8.79284 | 571 ft | 177 kts | 358° |
| 2026-04-30 13:57 | 42.55991 | 8.79252 | 1610 ft | 162 kts | 2° |
| 2026-04-30 13:57 | 42.57230 | 8.79242 | 1732 ft | 196 kts | 2° |
| 2026-04-30 13:57 | 42.58734 | 8.79244 | 1731 ft | 233 kts | 3° |
| 2026-04-30 13:57 | 42.60405 | 8.79239 | 1731 ft | 244 kts | 2° |
| 2026-04-30 13:58 | 42.62113 | 8.79227 | 1733 ft | 245 kts | 2° |
| 2026-04-30 13:58 | 42.65528 | 8.79202 | 1733 ft | 250 kts | 2° |
| 2026-04-30 13:58 | 42.67247 | 8.79190 | 1819 ft | 246 kts | 2° |
| 2026-04-30 13:59 | 42.68951 | 8.79179 | 2103 ft | 248 kts | 6° |
| 2026-04-30 13:59 | 42.70678 | 8.79363 | 2431 ft | 249 kts | 19° |
| 2026-04-30 13:59 | 42.72179 | 8.80441 | 2753 ft | 244 kts | 45° |
| 2026-04-30 13:59 | 42.73197 | 8.82268 | 3084 ft | 242 kts | 63° |
| 2026-04-30 14:00 | 42.74036 | 8.84250 | 3410 ft | 241 kts | 63° |
| 2026-04-30 14:00 | 42.75739 | 8.88262 | 4057 ft | 247 kts | 62° |
| 2026-04-30 14:00 | 42.76604 | 8.90297 | 4393 ft | 248 kts | 63° |
| 2026-04-30 14:01 | 42.77467 | 8.92327 | 4727 ft | 249 kts | 62° |
| 2026-04-30 14:01 | 42.78342 | 8.94383 | 5060 ft | 253 kts | 61° |
| 2026-04-30 14:01 | 42.79228 | 8.96461 | 5378 ft | 254 kts | 61° |
| 2026-04-30 14:01 | 42.80116 | 8.98547 | 5710 ft | 256 kts | 62° |
| 2026-04-30 14:02 | 42.81016 | 9.00660 | 6043 ft | 261 kts | 61° |
| 2026-04-30 14:02 | 42.81928 | 9.02808 | 6370 ft | 263 kts | 62° |
| 2026-04-30 14:02 | 42.82844 | 9.04970 | 6697 ft | 266 kts | 61° |
| 2026-04-30 14:02 | 42.83773 | 9.07161 | 7029 ft | 269 kts | 60° |
| 2026-04-30 14:03 | 42.84708 | 9.09373 | 7350 ft | 270 kts | 60° |
| 2026-04-30 14:03 | 42.85645 | 9.11599 | 7668 ft | 272 kts | 60° |
| 2026-04-30 14:03 | 42.86592 | 9.13849 | 7999 ft | 275 kts | 59° |
| 2026-04-30 14:03 | 42.87540 | 9.16091 | 8331 ft | 271 kts | 59° |
| 2026-04-30 14:04 | 42.88403 | 9.18380 | 8650 ft | 273 kts | 66° |
| 2026-04-30 14:04 | 42.88960 | 9.20874 | 8987 ft | 279 kts | 77° |
| 2026-04-30 14:04 | 42.89174 | 9.23514 | 9319 ft | 283 kts | 87° |
| 2026-04-30 14:04 | 42.89022 | 9.26216 | 9666 ft | 289 kts | 97° |
| 2026-04-30 14:05 | 42.88647 | 9.28927 | 10013 ft | 292 kts | 98° |
| 2026-04-30 14:05 | 42.88267 | 9.31716 | 10327 ft | 308 kts | 96° |
| 2026-04-30 14:05 | 42.87867 | 9.34670 | 10652 ft | 326 kts | 97° |
| 2026-04-30 14:05 | 42.87445 | 9.37786 | 10975 ft | 343 kts | 99° |
| 2026-04-30 14:06 | 42.87006 | 9.41001 | 11294 ft | 354 kts | 98° |
| 2026-04-30 14:06 | 42.86084 | 9.47684 | 11952 ft | 362 kts | 98° |
| 2026-04-30 14:07 | 42.85139 | 9.54491 | 12613 ft | 369 kts | 98° |
| 2026-04-30 14:07 | 42.84662 | 9.57953 | 12952 ft | 372 kts | 98° |
| 2026-04-30 14:07 | 42.84182 | 9.61432 | 13293 ft | 375 kts | 98° |
| 2026-04-30 14:08 | 42.83211 | 9.68395 | 13974 ft | 381 kts | 98° |
| 2026-04-30 14:08 | 42.82709 | 9.71950 | 14282 ft | 383 kts | 98° |
| 2026-04-30 14:08 | 42.81702 | 9.79103 | 14889 ft | 385 kts | 98° |
| 2026-04-30 14:09 | 42.81201 | 9.82695 | 15217 ft | 387 kts | 98° |
| 2026-04-30 14:09 | 42.80697 | 9.86303 | 15550 ft | 389 kts | 98° |
| 2026-04-30 14:09 | 42.79684 | 9.93528 | 16193 ft | 392 kts | 98° |
| 2026-04-30 14:10 | 42.79165 | 9.97189 | 16519 ft | 395 kts | 99° |
| 2026-04-30 14:10 | 42.78640 | 10.00867 | 16849 ft | 397 kts | 99° |
| 2026-04-30 14:10 | 42.78115 | 10.04567 | 17184 ft | 399 kts | 98° |
| 2026-04-30 14:10 | 42.77587 | 10.08286 | 17526 ft | 401 kts | 99° |
| 2026-04-30 14:11 | 42.77053 | 10.12020 | 17874 ft | 403 kts | 99° |
| 2026-04-30 14:11 | 42.76513 | 10.15769 | 18217 ft | 404 kts | 99° |
| 2026-04-30 14:11 | 42.75968 | 10.19536 | 18549 ft | 407 kts | 98° |
| 2026-04-30 14:11 | 42.75421 | 10.23326 | 18863 ft | 410 kts | 99° |
| 2026-04-30 14:12 | 42.74870 | 10.27150 | 19170 ft | 413 kts | 99° |
| 2026-04-30 14:12 | 42.74313 | 10.30998 | 19466 ft | 416 kts | 99° |
| 2026-04-30 14:12 | 42.73750 | 10.34874 | 19780 ft | 419 kts | 99° |
| 2026-04-30 14:12 | 42.73374 | 10.37462 | 19990 ft | 421 kts | 99° |
| 2026-04-30 14:13 | 42.72939 | 10.42756 | 20413 ft | 422 kts | 90° |
| 2026-04-30 14:13 | 42.72792 | 10.46766 | 20735 ft | 425 kts | 90° |
| 2026-04-30 14:13 | 42.72640 | 10.50791 | 21061 ft | 428 kts | 90° |
| 2026-04-30 14:13 | 42.72480 | 10.54854 | 21393 ft | 431 kts | 90° |
| 2026-04-30 14:14 | 42.72303 | 10.58941 | 21739 ft | 436 kts | 93° |
| 2026-04-30 14:14 | 42.71772 | 10.63032 | 22078 ft | 443 kts | 103° |
| 2026-04-30 14:14 | 42.70735 | 10.66996 | 22421 ft | 448 kts | 114° |
| 2026-04-30 14:14 | 42.69221 | 10.70721 | 22775 ft | 452 kts | 122° |
| 2026-04-30 14:15 | 42.67547 | 10.74350 | 23072 ft | 456 kts | 122° |
| 2026-04-30 14:15 | 42.65867 | 10.78012 | 23136 ft | 457 kts | 122° |
| 2026-04-30 14:15 | 42.64190 | 10.81676 | 23129 ft | 457 kts | 122° |
| 2026-04-30 14:15 | 42.62513 | 10.85342 | 23131 ft | 457 kts | 122° |
| 2026-04-30 14:16 | 42.60834 | 10.89008 | 23137 ft | 457 kts | 122° |